createdAt,value
2023-03-06T00:01:19.377Z,3.90
2023-03-06T00:03:48.150Z,4.47
2023-03-06T00:06:15.565Z,2.67
2023-03-06T00:08:48.291Z,3.03
2023-03-06T00:11:15.597Z,2.70
2023-03-06T00:13:42.819Z,2.67
2023-03-06T00:16:10.208Z,3.87
2023-03-06T00:18:37.499Z,2.87
2023-03-06T00:21:08.867Z,2.57
2023-03-06T00:23:41.468Z,2.70
2023-03-06T00:26:09.021Z,2.57
2023-03-06T00:28:37.946Z,2.47
2023-03-06T00:31:05.386Z,4.00
2023-03-06T00:37:28.324Z,4.33
2023-03-06T00:39:57.888Z,3.07
2023-03-06T00:42:25.455Z,3.20
2023-03-06T00:44:53.152Z,2.83
2023-03-06T00:47:20.526Z,4.13
2023-03-06T00:49:47.818Z,7.80
2023-03-06T00:52:15.145Z,2.90
2023-03-06T00:54:42.422Z,3.40
2023-03-06T00:57:11.658Z,3.60
2023-03-06T00:59:39.052Z,4.53
2023-03-06T01:02:07.175Z,3.10
2023-03-06T01:04:57.146Z,2.63
2023-03-06T01:07:39.756Z,2.27
2023-03-06T01:10:07.753Z,3.60
2023-03-06T01:12:36.601Z,2.23
2023-03-06T01:15:04.062Z,2.17
2023-03-06T01:17:31.396Z,2.20
2023-03-06T01:19:58.682Z,1.80
2023-03-06T01:22:31.304Z,4.10
2023-03-06T01:25:00.187Z,3.07
2023-03-06T01:27:27.806Z,5.03
2023-03-06T01:29:56.628Z,3.17
2023-03-06T01:32:46.444Z,3.17
2023-03-06T01:35:34.356Z,2.03
2023-03-06T01:38:16.740Z,4.47
2023-03-06T01:40:44.190Z,2.67
2023-03-06T01:43:12.199Z,2.10
2023-03-06T01:45:58.013Z,2.77
2023-03-06T01:48:27.384Z,3.27
2023-03-06T01:54:31.795Z,2.40
2023-03-06T01:57:01.482Z,3.27
2023-03-06T01:59:29.321Z,2.10
2023-03-06T02:05:49.771Z,2.10
2023-03-06T02:08:23.924Z,5.13
2023-03-06T02:10:57.909Z,2.03
2023-03-06T02:13:25.350Z,2.13
2023-03-06T02:15:52.596Z,2.90
2023-03-06T02:18:20.165Z,6.33
2023-03-06T02:20:50.978Z,3.10
2023-03-06T02:23:28.855Z,2.27
2023-03-06T02:25:57.866Z,3.10
2023-03-06T02:28:25.551Z,3.03
2023-03-06T02:30:54.444Z,4.67
2023-03-06T02:33:42.183Z,3.20
2023-03-06T02:36:29.437Z,3.53
2023-03-06T02:38:57.438Z,2.80
2023-03-06T02:41:26.156Z,3.10
2023-03-06T02:43:54.427Z,2.40
2023-03-06T02:46:21.761Z,2.30
2023-03-06T02:48:49.152Z,2.67
2023-03-06T02:51:38.690Z,3.13
2023-03-06T02:54:06.665Z,2.50
2023-03-06T02:56:35.340Z,6.00
2023-03-06T02:59:03.336Z,4.17
2023-03-06T03:01:49.608Z,4.57
2023-03-06T03:08:03.096Z,2.30
2023-03-06T03:10:30.466Z,2.93
2023-03-06T03:12:59.316Z,2.57
2023-03-06T03:15:27.070Z,3.00
2023-03-06T03:17:54.896Z,2.27
2023-03-06T03:20:22.810Z,2.77
2023-03-06T03:22:51.269Z,2.90
2023-03-06T03:25:19.463Z,2.97
2023-03-06T03:27:47.249Z,5.80
2023-03-06T03:30:17.531Z,3.90
2023-03-06T03:33:10.372Z,3.20
2023-03-06T03:35:57.252Z,3.43
2023-03-06T03:38:25.755Z,2.77
2023-03-06T03:40:53.485Z,4.00
2023-03-06T03:43:21.084Z,6.10
2023-03-06T03:45:49.754Z,5.80
2023-03-06T03:48:17.479Z,2.53
2023-03-06T03:53:27.241Z,2.87
2023-03-06T03:55:55.006Z,2.60
2023-03-06T03:58:22.734Z,3.50
2023-03-06T04:00:52.000Z,2.97
2023-03-06T04:03:19.892Z,4.40
2023-03-06T04:06:05.440Z,4.23
2023-03-06T04:08:55.333Z,2.90
2023-03-06T04:11:33.316Z,4.80
2023-03-06T04:14:01.164Z,2.73
2023-03-06T04:16:29.923Z,3.30
2023-03-06T04:18:57.330Z,3.57
2023-03-06T04:21:30.343Z,2.77
2023-03-06T04:23:57.763Z,3.70
2023-03-06T04:26:25.220Z,2.43
2023-03-06T04:28:52.814Z,5.00
2023-03-06T04:31:21.346Z,4.50
2023-03-06T04:33:50.564Z,2.73
2023-03-06T04:36:27.010Z,2.47
2023-03-06T04:38:57.395Z,3.93
2023-03-06T04:41:25.122Z,4.00
2023-03-06T04:43:52.528Z,5.57
2023-03-06T04:46:31.923Z,4.37
2023-03-06T04:49:21.729Z,5.30
2023-03-06T04:51:50.407Z,4.57
2023-03-06T04:54:19.056Z,4.50
2023-03-06T04:56:46.412Z,4.93
2023-03-06T04:59:13.751Z,7.53
2023-03-06T05:01:41.039Z,4.93
2023-03-06T05:04:08.489Z,5.80
2023-03-06T05:06:41.907Z,5.97
2023-03-06T05:09:10.534Z,6.67
2023-03-06T05:11:37.826Z,3.80
2023-03-06T05:14:05.043Z,7.03
2023-03-06T05:16:44.442Z,9.63
2023-03-06T05:19:23.650Z,4.57
2023-03-06T05:21:55.898Z,2.90
2023-03-06T05:24:24.631Z,4.57
2023-03-06T05:26:52.121Z,5.07
2023-03-06T05:29:19.388Z,3.20
2023-03-06T05:31:46.607Z,8.00
2023-03-06T05:34:14.153Z,5.23
2023-03-06T05:36:44.508Z,3.17
2023-03-06T05:39:11.790Z,5.93
2023-03-06T05:41:40.457Z,4.83
2023-03-06T05:44:07.809Z,8.20
2023-03-06T05:47:02.283Z,6.50
2023-03-06T05:49:48.206Z,3.70
2023-03-06T05:52:15.655Z,5.73
2023-03-06T05:54:42.908Z,5.60
2023-03-06T05:57:11.839Z,11.07
2023-03-06T05:59:39.075Z,3.47
2023-03-06T06:02:06.493Z,4.23
2023-03-06T06:07:23.246Z,2.73
2023-03-06T06:09:53.430Z,5.07
2023-03-06T06:12:22.198Z,3.03
2023-03-06T06:15:09.512Z,3.57
2023-03-06T06:21:28.881Z,3.13
2023-03-06T06:23:56.489Z,4.43
2023-03-06T06:26:23.844Z,2.10
2023-03-06T06:28:52.540Z,5.53
2023-03-06T06:31:19.837Z,2.87
2023-03-06T06:33:47.154Z,2.17
2023-03-06T06:36:18.145Z,3.47
2023-03-06T06:38:45.644Z,4.50
2023-03-06T06:41:38.911Z,2.40
2023-03-06T06:44:01.940Z,5.43
2023-03-06T06:49:16.950Z,9.67
2023-03-06T06:51:53.964Z,5.10
2023-03-06T06:54:21.263Z,2.07
2023-03-06T06:56:48.585Z,4.67
2023-03-06T06:59:17.685Z,2.23
2023-03-06T07:01:45.257Z,4.27
2023-03-06T07:04:12.940Z,7.77
2023-03-06T07:06:40.286Z,4.90
2023-03-06T07:09:07.528Z,5.00
2023-03-06T07:11:35.067Z,8.23
2023-03-06T07:14:02.285Z,5.67
2023-03-06T07:16:31.199Z,12.47
2023-03-06T07:18:58.854Z,6.20
2023-03-06T07:21:26.310Z,3.97
2023-03-06T07:23:53.564Z,7.30
2023-03-06T07:26:20.930Z,6.20
2023-03-06T07:28:52.702Z,2.33
2023-03-06T07:31:20.650Z,2.30
2023-03-06T07:33:49.301Z,7.57
2023-03-06T07:36:16.778Z,5.23
2023-03-06T07:38:44.138Z,6.50
2023-03-06T07:41:12.283Z,4.57
2023-03-06T07:43:40.013Z,6.67
2023-03-06T07:46:08.096Z,4.20
2023-03-06T07:48:35.765Z,5.73
2023-03-06T07:51:05.946Z,3.40
2023-03-06T07:53:33.742Z,4.33
2023-03-06T07:56:01.508Z,4.60
2023-03-06T07:58:28.747Z,4.40
2023-03-06T08:00:56.069Z,4.30
2023-03-06T08:03:23.350Z,4.83
2023-03-06T08:05:50.674Z,3.90
2023-03-06T08:08:19.426Z,7.47
2023-03-06T08:10:48.283Z,3.07
2023-03-06T08:13:15.604Z,3.40
2023-03-06T08:15:47.950Z,2.97
2023-03-06T08:18:15.240Z,2.90
2023-03-06T08:20:42.496Z,3.33
2023-03-06T08:23:09.773Z,2.80
2023-03-06T08:25:38.738Z,2.20
2023-03-06T08:28:06.693Z,5.13
2023-03-06T08:30:34.021Z,1.97
2023-03-06T08:33:01.404Z,3.93
2023-03-06T08:35:28.867Z,7.20
2023-03-06T08:37:56.353Z,7.07
2023-03-06T08:40:23.660Z,6.17
2023-03-06T08:42:52.301Z,7.50
2023-03-06T08:45:19.502Z,10.23
2023-03-06T08:47:46.792Z,9.13
2023-03-06T08:50:14.612Z,7.33
2023-03-06T08:52:41.998Z,8.23
2023-03-06T08:55:09.765Z,8.80
2023-03-06T08:57:37.038Z,7.10
2023-03-06T09:00:06.264Z,8.80
2023-03-06T09:02:33.666Z,10.20
2023-03-06T09:05:00.882Z,8.20
2023-03-06T09:07:28.498Z,10.10
2023-03-06T09:09:56.650Z,8.00
2023-03-06T09:12:28.119Z,6.43
2023-03-06T09:14:57.092Z,7.47
2023-03-06T09:17:25.782Z,10.97
2023-03-06T09:19:53.080Z,14.60
2023-03-06T09:22:20.353Z,10.00
2023-03-06T09:24:47.669Z,9.47
2023-03-06T09:27:14.990Z,5.63
2023-03-06T09:29:42.344Z,7.20
2023-03-06T09:32:12.083Z,10.43
2023-03-06T09:34:40.845Z,7.77
2023-03-06T09:37:08.174Z,8.30
2023-03-06T09:39:35.464Z,6.80
2023-03-06T09:42:03.076Z,7.10
2023-03-06T09:44:31.914Z,6.27
2023-03-06T09:47:21.446Z,4.33
2023-03-06T09:49:58.514Z,12.17
2023-03-06T09:52:31.302Z,7.50
2023-03-06T09:55:00.028Z,8.93
2023-03-06T09:57:28.973Z,9.87
2023-03-06T09:59:57.693Z,9.70
2023-03-06T10:02:27.743Z,7.80
2023-03-06T10:04:58.721Z,17.93
2023-03-06T10:07:34.298Z,7.87
2023-03-06T10:10:02.554Z,9.33
2023-03-06T10:12:33.317Z,10.67
2023-03-06T10:15:03.322Z,7.50
2023-03-06T10:17:34.429Z,8.77
2023-03-06T10:20:09.538Z,8.03
2023-03-06T10:22:39.435Z,6.63
2023-03-06T10:25:15.538Z,9.20
2023-03-06T10:27:45.747Z,10.60
2023-03-06T10:30:20.665Z,9.20
2023-03-06T10:32:51.793Z,8.07
2023-03-06T10:35:22.986Z,7.07
2023-03-06T10:37:50.486Z,7.73
2023-03-06T10:40:20.328Z,7.00
2023-03-06T10:42:47.633Z,5.43
2023-03-06T10:45:16.048Z,7.87
2023-03-06T10:47:43.329Z,8.00
2023-03-06T10:50:26.695Z,8.23
2023-03-06T10:53:01.315Z,6.80
2023-03-06T10:55:29.654Z,6.87
2023-03-06T10:57:56.915Z,8.43
2023-03-06T11:00:25.748Z,5.30
2023-03-06T11:03:04.545Z,7.53
2023-03-06T11:05:36.009Z,6.33
2023-03-06T11:08:03.261Z,10.33
2023-03-06T11:10:32.368Z,7.27
2023-03-06T11:13:00.842Z,10.17
2023-03-06T11:15:28.545Z,6.60
2023-03-06T11:17:57.900Z,6.40
2023-03-06T11:20:26.703Z,6.90
2023-03-06T11:22:57.521Z,6.30
2023-03-06T11:25:28.132Z,5.40
2023-03-06T11:27:56.886Z,5.40
2023-03-06T11:30:25.744Z,9.03
2023-03-06T11:32:54.467Z,5.33
2023-03-06T11:35:22.869Z,8.20
2023-03-06T11:37:53.128Z,6.53
2023-03-06T11:40:24.888Z,6.97
2023-03-06T11:42:56.748Z,4.83
2023-03-06T11:45:25.745Z,9.57
2023-03-06T11:47:55.773Z,5.23
2023-03-06T11:50:27.043Z,4.97
2023-03-06T11:52:55.952Z,7.43
2023-03-06T11:55:32.896Z,5.47
2023-03-06T11:58:05.411Z,5.80
2023-03-06T12:00:39.291Z,6.53
2023-03-06T12:03:28.777Z,10.63
2023-03-06T12:06:01.643Z,8.37
2023-03-06T12:08:46.989Z,6.33
2023-03-06T12:11:20.378Z,7.00
2023-03-06T12:14:05.284Z,8.03
2023-03-06T12:16:47.545Z,6.93
2023-03-06T12:19:22.964Z,8.30
2023-03-06T12:21:55.318Z,6.73
2023-03-06T12:24:31.017Z,6.87
2023-03-06T12:27:03.841Z,11.33
2023-03-06T12:29:42.170Z,8.17
2023-03-06T12:32:16.905Z,5.37
2023-03-06T12:34:50.984Z,6.57
2023-03-06T12:37:22.373Z,7.47
2023-03-06T12:39:57.969Z,6.87
2023-03-06T12:42:39.512Z,6.07
2023-03-06T12:45:26.084Z,6.73
2023-03-06T12:47:55.566Z,7.53
2023-03-06T12:50:24.778Z,6.77
2023-03-06T12:52:53.008Z,6.83
2023-03-06T12:55:24.352Z,10.30
2023-03-06T12:57:54.877Z,6.80
2023-03-06T13:00:47.866Z,5.17
2023-03-06T13:03:19.634Z,7.70
2023-03-06T13:05:57.921Z,6.80
2023-03-06T13:08:46.235Z,9.07
2023-03-06T13:11:20.108Z,5.80
2023-03-06T13:13:56.806Z,4.93
2023-03-06T13:19:45.861Z,8.40
2023-03-06T13:22:23.551Z,7.53
2023-03-06T13:25:11.118Z,8.00
2023-03-06T13:28:00.886Z,10.63
2023-03-06T13:30:43.770Z,9.47
2023-03-06T13:36:21.988Z,7.73
2023-03-06T13:38:56.905Z,13.70
2023-03-06T13:41:33.739Z,11.17
2023-03-06T13:44:03.554Z,8.87
2023-03-06T13:46:32.418Z,10.03
2023-03-06T13:49:30.832Z,11.33
2023-03-06T13:52:20.289Z,14.03
2023-03-06T13:54:56.373Z,10.47
2023-03-06T13:57:35.788Z,13.23
2023-03-06T14:00:21.562Z,14.57
2023-03-06T14:02:58.848Z,16.10
2023-03-06T14:05:26.248Z,12.77
2023-03-06T14:08:03.314Z,13.57
2023-03-06T14:10:32.101Z,13.50
2023-03-06T14:13:01.910Z,13.53
2023-03-06T14:15:32.271Z,14.73
2023-03-06T14:18:02.236Z,15.23
2023-03-06T14:20:34.036Z,12.87
2023-03-06T14:26:06.186Z,13.87
2023-03-06T14:28:34.402Z,10.80
2023-03-06T14:31:02.575Z,8.07
2023-03-06T14:33:53.047Z,10.13
2023-03-06T14:36:48.183Z,10.53
2023-03-06T14:39:23.392Z,8.77
2023-03-06T14:41:50.680Z,7.53
2023-03-06T14:44:19.126Z,5.40
2023-03-06T14:46:47.308Z,3.90
2023-03-06T14:49:16.503Z,4.17
2023-03-06T14:51:44.886Z,4.57
2023-03-06T14:54:16.622Z,4.13
2023-03-06T14:56:45.389Z,3.93
2023-03-06T14:59:14.757Z,5.80
2023-03-06T15:01:42.819Z,5.27
2023-03-06T15:04:15.730Z,5.03
2023-03-06T15:06:45.175Z,5.27
2023-03-06T15:09:16.361Z,6.93
2023-03-06T15:11:57.282Z,6.73
2023-03-06T15:14:30.847Z,6.33
2023-03-06T15:17:13.133Z,7.20
2023-03-06T15:19:40.710Z,7.37
2023-03-06T15:22:21.177Z,9.37
2023-03-06T15:24:48.780Z,9.77
2023-03-06T15:27:18.153Z,10.27
2023-03-06T15:29:45.785Z,8.60
2023-03-06T15:32:13.748Z,8.87
2023-03-06T15:34:41.282Z,11.17
2023-03-06T15:37:26.913Z,8.53
2023-03-06T15:40:02.585Z,9.20
2023-03-06T15:42:30.300Z,10.57
2023-03-06T15:45:00.212Z,11.43
2023-03-06T15:47:27.444Z,10.77
2023-03-06T15:53:50.263Z,10.03
2023-03-06T15:56:25.243Z,13.33
2023-03-06T15:58:52.866Z,14.90
2023-03-06T16:01:20.471Z,11.07
2023-03-06T16:03:47.834Z,14.33
2023-03-06T16:06:16.892Z,11.63
2023-03-06T16:08:44.196Z,12.70
2023-03-06T16:11:13.970Z,12.93
2023-03-06T16:13:42.608Z,13.97
2023-03-06T16:16:12.277Z,13.03
2023-03-06T16:18:39.509Z,11.63
2023-03-06T16:21:06.737Z,14.03
2023-03-06T16:26:13.632Z,13.10
2023-03-06T16:28:41.183Z,14.07
2023-03-06T16:31:12.666Z,16.03
2023-03-06T16:33:40.129Z,12.53
2023-03-06T16:36:11.786Z,16.27
2023-03-06T16:42:32.921Z,14.07
2023-03-06T16:45:00.203Z,16.13
2023-03-06T16:47:28.803Z,15.50
2023-03-06T16:49:56.061Z,15.87
2023-03-06T16:52:23.607Z,14.43
2023-03-06T16:54:50.915Z,15.13
2023-03-06T16:57:18.301Z,15.63
2023-03-06T16:59:45.530Z,14.53
2023-03-06T17:02:13.067Z,15.90
2023-03-06T17:04:41.729Z,18.27
2023-03-06T17:07:08.908Z,15.00
2023-03-06T17:09:36.167Z,16.10
2023-03-06T17:12:03.387Z,19.57
2023-03-06T17:14:30.617Z,17.47
2023-03-06T17:17:07.682Z,16.93
2023-03-06T17:19:34.881Z,17.73
2023-03-06T17:22:03.573Z,15.50
2023-03-06T17:24:30.850Z,17.57
2023-03-06T17:26:58.160Z,17.17
2023-03-06T17:29:25.434Z,16.67
2023-03-06T17:31:52.712Z,20.00
2023-03-06T17:34:19.948Z,16.00
2023-03-06T17:36:47.175Z,18.53
2023-03-06T17:39:15.813Z,19.10
2023-03-06T17:41:45.938Z,16.67
2023-03-06T17:44:13.706Z,15.97
2023-03-06T17:46:41.050Z,16.40
2023-03-06T17:49:08.464Z,17.50
2023-03-06T17:51:35.782Z,18.60
2023-03-06T17:54:03.038Z,16.67
2023-03-06T17:56:32.008Z,16.30
2023-03-06T18:02:50.791Z,15.30
2023-03-06T18:05:18.252Z,20.57
2023-03-06T18:07:45.903Z,24.03
2023-03-06T18:10:13.295Z,20.60
2023-03-06T18:12:41.889Z,17.00
2023-03-06T18:15:10.027Z,17.23
2023-03-06T18:17:37.332Z,17.07
2023-03-06T18:20:04.879Z,18.30
2023-03-06T18:22:32.068Z,17.07
2023-03-06T18:24:59.295Z,17.63
2023-03-06T18:27:26.707Z,20.73
2023-03-06T18:29:55.309Z,18.43
2023-03-06T18:32:22.836Z,18.97
2023-03-06T18:34:50.089Z,19.33
2023-03-06T18:37:17.373Z,18.77
2023-03-06T18:39:44.625Z,18.57
2023-03-06T18:42:11.817Z,17.90
2023-03-06T18:44:39.628Z,19.27
2023-03-06T18:47:08.547Z,19.20
2023-03-06T18:49:35.900Z,18.07
2023-03-06T18:52:03.547Z,18.13
2023-03-06T18:54:30.929Z,15.90
2023-03-06T18:56:58.257Z,12.50
2023-03-06T18:59:25.796Z,19.33
2023-03-06T19:01:53.215Z,16.60
2023-03-06T19:04:21.857Z,16.50
2023-03-06T19:06:49.147Z,18.90
2023-03-06T19:09:16.402Z,14.00
2023-03-06T19:11:43.942Z,15.43
2023-03-06T19:14:11.550Z,12.57
2023-03-06T19:16:39.237Z,12.93
2023-03-06T19:19:07.022Z,13.07
2023-03-06T19:21:35.670Z,13.03
2023-03-06T19:24:03.116Z,12.40
2023-03-06T19:26:30.355Z,12.67
2023-03-06T19:28:57.709Z,12.43
2023-03-06T19:31:26.823Z,13.57
2023-03-06T19:33:54.888Z,15.30
2023-03-06T19:36:22.451Z,9.20
2023-03-06T19:38:53.596Z,9.17
2023-03-06T19:41:21.207Z,8.10
2023-03-06T19:43:50.220Z,11.00
2023-03-06T19:46:17.579Z,7.93
2023-03-06T19:48:44.888Z,5.00
2023-03-06T19:51:13.008Z,11.07
2023-03-06T19:53:40.477Z,5.43
2023-03-06T19:56:10.410Z,4.27
2023-03-06T19:58:38.019Z,3.67
2023-03-06T20:01:06.202Z,3.50
2023-03-06T20:03:38.794Z,3.93
2023-03-06T20:06:06.331Z,8.17
2023-03-06T20:08:33.562Z,2.93
2023-03-06T20:11:00.740Z,4.43
2023-03-06T20:17:21.468Z,6.87
2023-03-06T20:19:49.076Z,9.87
2023-03-06T20:22:16.414Z,3.67
2023-03-06T20:24:44.045Z,3.27
2023-03-06T20:27:11.420Z,4.60
2023-03-06T20:29:38.693Z,5.33
2023-03-06T20:32:06.077Z,4.00
2023-03-06T20:34:34.747Z,4.20
2023-03-06T20:37:02.031Z,3.87
2023-03-06T20:39:29.213Z,6.40
2023-03-06T20:41:56.810Z,3.30
2023-03-06T20:44:24.211Z,9.57
2023-03-06T20:46:51.571Z,5.40
2023-03-06T20:49:19.326Z,8.47
2023-03-06T20:51:48.305Z,3.27
2023-03-06T20:54:16.197Z,5.80
2023-03-06T20:56:44.739Z,4.30
2023-03-06T20:59:12.533Z,4.27
2023-03-06T21:01:40.921Z,4.40
2023-03-06T21:04:08.593Z,14.63
2023-03-06T21:06:36.108Z,8.47
2023-03-06T21:09:05.126Z,8.40
2023-03-06T21:11:32.858Z,12.20
2023-03-06T21:14:00.130Z,7.17
2023-03-06T21:16:28.033Z,5.50
2023-03-06T21:18:55.728Z,7.97
2023-03-06T21:21:24.201Z,3.80
2023-03-06T21:23:53.415Z,9.87
2023-03-06T21:26:23.432Z,10.33
2023-03-06T21:28:50.862Z,10.30
2023-03-06T21:31:19.426Z,7.33
2023-03-06T21:33:47.362Z,4.83
2023-03-06T21:36:14.694Z,6.47
2023-03-06T21:38:42.019Z,5.03
2023-03-06T21:41:10.320Z,7.17
2023-03-06T21:43:38.964Z,10.73
2023-03-06T21:46:06.391Z,10.10
2023-03-06T21:48:33.754Z,6.77
2023-03-06T21:51:04.999Z,13.60
2023-03-06T21:53:32.217Z,11.67
2023-03-06T21:55:59.790Z,7.87
2023-03-06T21:58:27.031Z,5.00
2023-03-06T22:00:55.780Z,6.33
2023-03-06T22:03:23.013Z,7.00
2023-03-06T22:05:50.295Z,4.60
2023-03-06T22:08:17.475Z,4.93
2023-03-06T22:10:46.489Z,4.73
2023-03-06T22:13:15.597Z,8.73
2023-03-06T22:15:49.646Z,3.30
2023-03-06T22:18:18.300Z,6.87
2023-03-06T22:20:45.604Z,5.70
2023-03-06T22:23:12.985Z,4.70
2023-03-06T22:25:40.245Z,4.20
2023-03-06T22:28:07.481Z,6.87
2023-03-06T22:30:34.735Z,8.53
2023-03-06T22:33:18.989Z,6.43
2023-03-06T22:35:46.242Z,4.10
2023-03-06T22:38:13.458Z,9.77
2023-03-06T22:40:40.740Z,8.70
2023-03-06T22:43:30.277Z,3.90
2023-03-06T22:49:15.485Z,7.47
2023-03-06T22:51:42.697Z,5.87
2023-03-06T22:54:10.425Z,10.67
2023-03-06T22:56:37.715Z,7.47
2023-03-06T22:59:05.105Z,5.90
2023-03-06T23:01:33.769Z,6.90
2023-03-06T23:04:02.151Z,6.40
2023-03-06T23:06:31.946Z,5.57
2023-03-06T23:09:00.635Z,9.60
2023-03-06T23:11:28.456Z,15.00
2023-03-06T23:14:15.589Z,9.03
2023-03-06T23:19:44.066Z,10.23
2023-03-06T23:22:31.674Z,11.53
2023-03-06T23:25:17.809Z,4.67
2023-03-06T23:27:45.122Z,6.67
2023-03-06T23:30:13.194Z,7.07
2023-03-06T23:33:11.719Z,9.50
2023-03-06T23:35:58.747Z,4.50
2023-03-06T23:38:27.354Z,10.90
2023-03-06T23:40:54.714Z,6.73
2023-03-06T23:43:22.048Z,5.67
2023-03-06T23:45:52.953Z,9.90
2023-03-06T23:48:29.583Z,6.40
2023-03-06T23:50:57.106Z,7.07
2023-03-06T23:53:24.436Z,6.87
2023-03-06T23:55:53.300Z,9.70
2023-03-06T23:58:20.843Z,7.13
